Time;durP1;ratioP1;P1;durP2;ratioP2;P2;SDS_P1;SDS_P2;PMS_P1;PMS_P2;Temp;Humidity;BMP_temperature;BMP_pressure;BME280_temperature;BME280_humidity;BME280_pressure;Samples;Min_cycle;Max_cycle;Signal;HPM_P1;HPM_P2
2023/08/16 00:00:10;;;;;;;31.70;16.65;;;;;;;29.02;nan;97828.06;5079384;28;20044;-67
2023/08/16 00:02:39;;;;;;;33.55;17.67;;;;;;;29.03;nan;97834.31;5076467;28;20063;-68
2023/08/16 00:05:08;;;;;;;32.88;17.23;;;;;;;29.01;nan;97833.84;5073570;28;20067;-67
2023/08/16 00:07:39;;;;;;;32.75;16.10;;;;;;;29.01;nan;97840.09;5078969;28;20087;-67
2023/08/16 00:10:11;;;;;;;35.45;16.42;;;;;;;29.00;nan;97838.47;5068450;28;20172;-69
2023/08/16 00:12:41;;;;;;;33.28;17.65;;;;;;;29.00;nan;97838.47;5077756;28;20079;-67
2023/08/16 00:15:11;;;;;;;33.20;17.67;;;;;;;29.00;nan;97837.69;5081256;28;20147;-67
2023/08/16 00:17:40;;;;;;;34.70;17.58;;;;;;;28.99;nan;97841.53;5079817;28;20648;-67
2023/08/16 00:20:10;;;;;;;30.67;17.40;;;;;;;28.99;nan;97847.00;5083371;28;20036;-66
2023/08/16 00:22:40;;;;;;;37.17;17.35;;;;;;;28.98;nan;97845.41;5082657;28;20048;-67
2023/08/16 00:25:10;;;;;;;41.08;17.20;;;;;;;28.98;nan;97850.88;5076326;28;20087;-67
2023/08/16 00:27:41;;;;;;;34.75;18.17;;;;;;;28.98;nan;97845.41;5066702;28;20048;-68
2023/08/16 00:30:12;;;;;;;38.72;19.45;;;;;;;29.01;nan;97855.66;5059468;28;20129;-68
2023/08/16 00:32:43;;;;;;;44.95;19.83;;;;;;;29.01;nan;97847.47;5072470;28;20741;-67
2023/08/16 00:35:14;;;;;;;36.55;19.67;;;;;;;29.01;nan;97859.19;5080186;28;20040;-68
2023/08/16 00:37:43;;;;;;;36.85;20.00;;;;;;;29.00;nan;97854.84;5060998;28;20048;-67
2023/08/16 00:40:15;;;;;;;35.38;19.42;;;;;;;29.01;nan;97851.00;5067778;28;20612;-68
2023/08/16 00:42:45;;;;;;;44.50;21.17;;;;;;;29.01;nan;97855.66;5077746;28;20147;-68
2023/08/16 00:45:15;;;;;;;41.67;21.45;;;;;;;29.00;nan;97852.13;5075076;28;20102;-68
2023/08/16 00:47:45;;;;;;;40.92;20.50;;;;;;;29.00;nan;97845.88;5082916;28;20105;-67
2023/08/16 00:50:15;;;;;;;37.42;20.92;;;;;;;29.00;nan;97854.84;5078954;28;20039;-68
2023/08/16 00:52:44;;;;;;;36.67;21.23;;;;;;;29.02;nan;97863.50;5077229;28;20059;-69
2023/08/16 00:55:13;;;;;;;38.40;22.05;;;;;;;29.03;nan;97859.63;5082127;28;20060;-67
2023/08/16 00:57:43;;;;;;;36.40;19.92;;;;;;;29.05;nan;97858.50;5078290;28;20052;-68
2023/08/16 01:00:13;;;;;;;40.35;21.80;;;;;;;29.07;nan;97854.31;5082827;28;20550;-67
2023/08/16 01:02:42;;;;;;;38.70;20.40;;;;;;;29.09;nan;97852.03;5070878;28;20048;-67
2023/08/16 01:05:12;;;;;;;45.08;21.95;;;;;;;29.13;nan;97861.16;5080645;28;20073;-67
2023/08/16 01:07:41;;;;;;;40.05;22.13;;;;;;;29.17;nan;97872.19;5080495;28;20055;-67
2023/08/16 01:10:11;;;;;;;38.28;20.90;;;;;;;29.20;nan;97871.53;5067047;28;20656;-68
2023/08/16 01:13:01;;;;;;;33.53;21.00;;;;;;;29.25;nan;97872.13;5040280;28;20052;-67
2023/08/16 01:15:41;;;;;;;36.03;19.70;;;;;;;29.31;nan;97868.09;5041773;28;20036;-69
2023/08/16 01:18:12;;;;;;;39.08;20.17;;;;;;;29.36;nan;97876.06;5027157;28;20152;-67
2023/08/16 01:20:44;;;;;;;38.28;20.35;;;;;;;29.41;nan;97881.31;5054290;28;20045;-67
2023/08/16 01:23:35;;;;;;;38.13;20.20;;;;;;;29.44;nan;97879.84;5043188;28;20593;-67
2023/08/16 01:26:22;;;;;;;38.53;21.08;;;;;;;29.48;nan;97886.22;5042913;28;20105;-68
2023/08/16 01:28:52;;;;;;;35.20;19.50;;;;;;;29.58;nan;97883.09;5045493;28;20135;-67
2023/08/16 01:31:22;;;;;;;41.70;20.27;;;;;;;29.65;nan;97883.31;5027899;28;20060;-67
2023/08/16 01:33:51;;;;;;;35.17;17.92;;;;;;;29.71;nan;97892.91;5063250;28;20058;-67
2023/08/16 01:36:21;;;;;;;35.63;16.67;;;;;;;29.76;nan;97886.44;5052449;28;20056;-67
2023/08/16 01:38:50;;;;;;;32.75;13.55;;;;;;;29.89;nan;97894.34;5047170;28;20560;-67
2023/08/16 01:41:35;;;;;;;29.17;13.98;;;;;;;29.97;nan;97903.56;5041410;28;20063;-67
2023/08/16 01:44:09;;;;;;;31.48;15.93;;;;;;;30.02;nan;97900.63;5038942;28;20695;-68
2023/08/16 01:46:40;;;;;;;37.78;14.85;;;;;;;30.07;nan;97905.06;5050105;28;20052;-67
2023/08/16 01:49:10;;;;;;;33.35;13.55;;;;;;;30.11;nan;97903.25;5043882;28;20048;-67
2023/08/16 01:51:40;;;;;;;28.13;13.65;;;;;;;30.20;nan;97912.16;5029211;28;21639;-67
2023/08/16 01:54:12;;;;;;;31.90;14.40;;;;;;;30.25;nan;97910.00;5048914;28;20132;-67
2023/08/16 01:56:41;;;;;;;31.88;14.18;;;;;;;30.36;nan;97906.81;5049431;28;20044;-67
2023/08/16 01:59:11;;;;;;;24.73;13.10;;;;;;;30.45;nan;97919.25;5050129;28;20152;-67
2023/08/16 02:01:40;;;;;;;32.08;13.13;;;;;;;30.53;nan;97912.09;5043416;28;20036;-67
2023/08/16 02:04:10;;;;;;;34.33;13.27;;;;;;;30.55;nan;97912.53;5023398;28;20171;-67
2023/08/16 02:06:40;;;;;;;31.67;13.32;;;;;;;30.66;nan;97919.94;5047194;28;20056;-67
2023/08/16 02:09:10;;;;;;;33.00;12.52;;;;;;;30.72;nan;97924.03;5048279;28;20040;-68
2023/08/16 02:11:41;;;;;;;59.83;15.52;;;;;;;30.77;nan;97923.00;5054941;28;20167;-67
2023/08/16 02:14:10;;;;;;;44.17;12.10;;;;;;;30.84;nan;97931.44;5061163;28;20048;-67
2023/08/16 02:16:40;;;;;;;81.15;17.73;;;;;;;30.91;nan;97933.59;5046424;28;20527;-67
2023/08/16 02:19:09;;;;;;;41.22;13.50;;;;;;;30.99;nan;97936.19;5073596;28;20048;-68
2023/08/16 02:21:38;;;;;;;32.60;12.30;;;;;;;31.06;nan;97936.47;5075127;28;20060;-68
2023/08/16 02:24:08;;;;;;;28.98;11.27;;;;;;;31.39;nan;97938.97;5073034;28;20143;-68
2023/08/16 02:26:37;;;;;;;36.58;12.73;;;;;;;31.81;nan;97944.09;5069781;28;20055;-67
2023/08/16 02:29:06;;;;;;;33.47;12.75;;;;;;;32.03;nan;97947.06;5066950;28;20071;-68
2023/08/16 02:31:38;;;;;;;34.22;13.00;;;;;;;32.23;nan;97947.19;5080831;28;20048;-68
2023/08/16 02:34:14;;;;;;;28.58;11.93;;;;;;;32.49;nan;97951.00;5077172;28;20051;-67
2023/08/16 02:36:44;;;;;;;32.22;13.15;;;;;;;32.52;nan;97950.31;5076348;28;20131;-67
2023/08/16 02:39:14;;;;;;;29.05;12.27;;;;;;;32.57;nan;97948.44;5080589;28;20050;-68
2023/08/16 02:41:44;;;;;;;31.17;12.85;;;;;;;32.57;nan;97949.25;5075749;28;20055;-68
2023/08/16 02:44:15;;;;;;;32.58;13.05;;;;;;;32.60;nan;97955.97;5085602;28;20118;-68
2023/08/16 02:46:45;;;;;;;29.65;13.18;;;;;;;32.70;nan;97956.25;5076988;28;20131;-67
2023/08/16 02:49:14;;;;;;;39.67;13.88;;;;;;;32.68;nan;97958.53;5074976;28;20059;-67
2023/08/16 02:51:43;;;;;;;36.03;13.73;;;;;;;32.71;nan;97959.75;5054589;28;20050;-68
2023/08/16 02:54:14;;;;;;;36.95;15.80;;;;;;;32.73;nan;97961.03;5081302;28;20048;-68
2023/08/16 02:56:43;;;;;;;35.83;13.45;;;;;;;32.64;nan;97962.34;5075313;28;20153;-68
2023/08/16 02:59:14;;;;;;;31.63;14.82;;;;;;;32.71;nan;97959.75;5072371;28;20048;-67
2023/08/16 03:01:43;;;;;;;43.25;14.07;;;;;;;32.78;nan;97957.22;5075483;28;20055;-69
2023/08/16 03:04:13;;;;;;;32.67;13.38;;;;;;;32.72;nan;97964.91;5066202;28;20044;-68
2023/08/16 03:06:42;;;;;;;36.05;12.85;;;;;;;32.79;nan;97965.09;5077531;28;20464;-68
2023/08/16 03:09:11;;;;;;;26.40;12.07;;;;;;;32.83;nan;97965.97;5058865;28;20102;-68
2023/08/16 03:11:41;;;;;;;27.67;12.80;;;;;;;32.83;nan;97971.47;5081286;28;20055;-68
2023/08/16 03:14:11;;;;;;;24.45;12.45;;;;;;;32.77;nan;97970.13;5076573;28;20044;-68
2023/08/16 03:16:42;;;;;;;33.13;13.93;;;;;;;32.76;nan;97978.69;5084710;28;20051;-69
2023/08/16 03:19:11;;;;;;;33.70;12.23;;;;;;;32.82;nan;97977.28;5076001;28;20565;-68
2023/08/16 03:21:40;;;;;;;28.05;11.90;;;;;;;32.90;nan;97981.78;5076896;28;20062;-67
2023/08/16 03:24:11;;;;;;;28.67;12.60;;;;;;;32.91;nan;97983.38;5078050;28;20090;-68
2023/08/16 03:26:40;;;;;;;29.33;13.30;;;;;;;32.92;nan;97990.47;5077871;28;20577;-68
2023/08/16 03:29:10;;;;;;;28.90;12.82;;;;;;;32.97;nan;97987.47;5082190;28;20044;-68
2023/08/16 03:31:39;;;;;;;33.95;14.77;;;;;;;32.86;nan;97984.47;5072185;28;20056;-67
2023/08/16 03:34:08;;;;;;;37.50;15.57;;;;;;;32.98;nan;97981.59;5059829;28;20040;-67
2023/08/16 03:36:38;;;;;;;37.13;14.23;;;;;;;33.06;nan;97977.06;5075034;28;20045;-67
2023/08/16 03:39:07;;;;;;;28.92;11.57;;;;;;;33.08;nan;97982.19;5076031;28;20051;-68
2023/08/16 03:41:37;;;;;;;29.65;10.32;;;;;;;33.15;nan;97980.44;5075623;28;20049;-68
2023/08/16 03:44:06;;;;;;;25.67;9.00;;;;;;;33.14;nan;97983.53;5074548;28;20055;-68
2023/08/16 03:46:35;;;;;;;25.17;10.20;;;;;;;33.24;nan;97985.72;5086219;28;20131;-67
2023/08/16 03:49:05;;;;;;;26.83;11.60;;;;;;;33.38;nan;97988.78;5077593;28;20506;-67
2023/08/16 03:51:35;;;;;;;28.70;9.77;;;;;;;33.48;nan;97985.47;5081386;28;20047;-67
2023/08/16 03:54:05;;;;;;;29.42;9.98;;;;;;;33.50;nan;97991.41;5078086;28;20048;-66
2023/08/16 03:56:36;;;;;;;36.17;11.35;;;;;;;33.47;nan;97986.63;5077126;28;20048;-66
2023/08/16 03:59:06;;;;;;;22.05;9.32;;;;;;;33.51;nan;97993.00;5089025;28;20171;-68
2023/08/16 04:01:36;;;;;;;25.90;10.75;;;;;;;33.55;nan;97998.56;5083608;28;20055;-68
2023/08/16 04:04:05;;;;;;;30.48;10.25;;;;;;;33.61;nan;97986.13;5058916;28;20040;-68
2023/08/16 04:06:35;;;;;;;29.27;10.32;;;;;;;33.62;nan;97995.97;5073286;28;20162;-68
2023/08/16 04:09:04;;;;;;;31.75;9.90;;;;;;;33.59;nan;97999.44;5104621;27;20040;-68
2023/08/16 04:11:34;;;;;;;29.58;11.13;;;;;;;33.49;nan;98003.56;5084195;28;20052;-66
2023/08/16 04:14:04;;;;;;;30.63;9.65;;;;;;;33.53;nan;98001.69;5085738;28;20158;-68
2023/08/16 04:16:33;;;;;;;24.63;9.77;;;;;;;33.67;nan;97999.25;5063755;28;20052;-68
2023/08/16 04:19:03;;;;;;;30.27;10.25;;;;;;;33.76;nan;98007.28;5074623;28;20145;-68
2023/08/16 04:21:32;;;;;;;30.02;9.43;;;;;;;33.79;nan;97996.38;5077481;28;20048;-67
2023/08/16 04:24:01;;;;;;;21.17;8.02;;;;;;;33.89;nan;98005.19;5082951;28;20044;-68
2023/08/16 04:26:30;;;;;;;25.55;8.50;;;;;;;33.91;nan;98005.59;5080415;28;20427;-68
2023/08/16 04:29:00;;;;;;;23.85;8.05;;;;;;;34.00;nan;98000.69;5075045;28;20058;-66
2023/08/16 04:31:29;;;;;;;24.33;7.38;;;;;;;33.98;nan;98003.81;5056448;28;20491;-67
2023/08/16 04:33:58;;;;;;;20.15;7.45;;;;;;;34.20;nan;98010.53;5074782;28;20048;-67
2023/08/16 04:36:28;;;;;;;30.42;9.82;;;;;;;34.33;nan;98008.41;5070143;28;20695;-67
2023/08/16 04:38:57;;;;;;;27.33;7.68;;;;;;;34.55;nan;98015.88;5070951;28;20056;-67
2023/08/16 04:41:27;;;;;;;29.95;8.13;;;;;;;34.60;nan;98015.56;5077561;28;20055;-67
2023/08/16 04:43:57;;;;;;;24.92;7.88;;;;;;;34.77;nan;98017.84;5073325;28;20145;-68
2023/08/16 04:46:30;;;;;;;17.20;7.45;;;;;;;34.85;nan;98021.50;5070044;28;20062;-68
2023/08/16 04:49:00;;;;;;;27.77;8.27;;;;;;;35.13;nan;98020.00;5077533;28;20225;-67
2023/08/16 04:51:29;;;;;;;26.80;9.15;;;;;;;35.14;nan;98021.56;5084384;28;20047;-67
2023/08/16 04:53:58;;;;;;;20.73;7.45;;;;;;;35.46;nan;98019.31;5081527;28;20052;-68
2023/08/16 04:56:28;;;;;;;26.33;8.52;;;;;;;35.43;nan;98030.28;5070924;28;20602;-68
2023/08/16 04:58:57;;;;;;;20.48;7.53;;;;;;;35.46;nan;98027.56;5080324;28;20089;-67
2023/08/16 05:01:28;;;;;;;26.60;8.38;;;;;;;35.45;nan;98030.72;5077445;28;20043;-67
2023/08/16 05:04:03;;;;;;;26.40;8.20;;;;;;;35.53;nan;98021.38;5075380;28;20543;-67
2023/08/16 05:06:32;;;;;;;19.55;7.93;;;;;;;35.89;nan;98025.41;5071243;28;20060;-68
2023/08/16 05:09:03;;;;;;;23.60;7.70;;;;;;;36.05;nan;98026.00;5056544;28;20091;-68
2023/08/16 05:11:32;;;;;;;19.55;7.30;;;;;;;35.75;nan;98019.72;5074955;28;20064;-67
2023/08/16 05:14:02;;;;;;;26.27;8.27;;;;;;;36.07;nan;98020.13;5073469;28;20044;-68
2023/08/16 05:16:31;;;;;;;23.33;8.10;;;;;;;36.06;nan;98018.53;5060362;28;20076;-67
2023/08/16 05:19:01;;;;;;;25.17;7.22;;;;;;;35.94;nan;98017.59;5071342;28;20051;-67
2023/08/16 05:21:33;;;;;;;23.50;7.68;;;;;;;35.80;nan;98011.94;5073537;28;20067;-66
2023/08/16 05:24:03;;;;;;;20.77;6.70;;;;;;;36.11;nan;98018.97;5078515;28;20668;-67
2023/08/16 05:26:32;;;;;;;26.15;7.15;;;;;;;36.02;nan;98019.28;5073509;28;20052;-66
2023/08/16 05:29:01;;;;;;;27.35;7.40;;;;;;;36.21;nan;98018.31;5073336;28;20135;-67
2023/08/16 05:31:31;;;;;;;25.02;7.75;;;;;;;36.11;nan;98015.44;5073337;28;20063;-66
2023/08/16 05:34:00;;;;;;;18.40;6.32;;;;;;;36.39;nan;98019.28;5073054;28;20051;-66
2023/08/16 05:36:29;;;;;;;17.73;6.75;;;;;;;36.52;nan;98013.50;5078552;28;20142;-66
2023/08/16 05:38:58;;;;;;;16.27;6.20;;;;;;;36.31;nan;98005.81;5072963;28;20055;-66
2023/08/16 05:41:28;;;;;;;24.83;6.93;;;;;;;36.53;nan;98007.59;5072619;28;20082;-66
2023/08/16 05:43:58;;;;;;;18.77;6.55;;;;;;;36.55;nan;98016.31;5070763;28;20052;-67
2023/08/16 05:46:28;;;;;;;25.35;7.35;;;;;;;36.46;nan;98005.59;5072221;28;20796;-67
2023/08/16 05:49:00;;;;;;;21.38;6.20;;;;;;;36.69;nan;98007.41;5104184;28;20045;-67
2023/08/16 05:51:30;;;;;;;30.90;7.55;;;;;;;37.02;nan;98018.28;5070764;28;20588;-66
2023/08/16 05:54:01;;;;;;;22.80;6.93;;;;;;;36.80;nan;98011.00;5071656;28;20102;-66
2023/08/16 05:56:31;;;;;;;21.45;5.78;;;;;;;36.65;nan;98012.06;5073945;28;20044;-66
2023/08/16 05:59:01;;;;;;;16.05;6.13;;;;;;;36.83;nan;98005.53;5070059;28;20102;-66
2023/08/16 06:01:30;;;;;;;20.95;6.72;;;;;;;36.83;nan;98004.72;5072110;28;20109;-66
2023/08/16 06:03:59;;;;;;;32.28;7.05;;;;;;;36.81;nan;98004.31;5069684;28;20055;-66
2023/08/16 06:06:28;;;;;;;19.40;5.80;;;;;;;36.85;nan;98002.38;5055468;28;20048;-68
2023/08/16 06:08:58;;;;;;;17.25;5.50;;;;;;;36.85;nan;97996.88;5077827;28;20052;-70
2023/08/16 06:11:27;;;;;;;22.65;6.40;;;;;;;36.51;nan;98001.69;5075526;28;20048;-67
2023/08/16 06:13:56;;;;;;;23.05;6.35;;;;;;;36.74;nan;97999.53;5078664;28;20155;-67
2023/08/16 06:16:25;;;;;;;22.55;6.70;;;;;;;36.86;nan;97987.41;5054027;28;20440;-69
2023/08/16 06:18:56;;;;;;;22.95;7.05;;;;;;;36.95;nan;97990.63;5080703;28;20125;-66
2023/08/16 06:21:25;;;;;;;22.77;6.50;;;;;;;37.11;nan;97987.59;5081371;28;20063;-67
2023/08/16 06:23:56;;;;;;;20.15;6.30;;;;;;;36.56;nan;97982.00;5082063;28;20044;-67
2023/08/16 06:26:25;;;;;;;23.30;6.50;;;;;;;36.74;nan;97980.22;5082828;28;20074;-67
2023/08/16 06:28:55;;;;;;;20.45;7.50;;;;;;;36.89;nan;97984.69;5085604;28;20443;-68
2023/08/16 06:31:24;;;;;;;29.10;7.30;;;;;;;36.78;nan;97975.50;5063701;28;20437;-68
2023/08/16 06:33:54;;;;;;;22.27;6.20;;;;;;;36.85;nan;97970.06;5077291;28;20083;-67
2023/08/16 06:36:24;;;;;;;26.80;6.18;;;;;;;37.14;nan;97964.72;5070848;28;20047;-67
2023/08/16 06:38:54;;;;;;;22.83;6.80;;;;;;;37.11;nan;97968.28;5076314;28;20134;-69
2023/08/16 06:41:23;;;;;;;18.50;5.45;;;;;;;36.84;nan;97962.94;5074614;28;20056;-67
2023/08/16 06:43:53;;;;;;;17.88;6.28;;;;;;;36.95;nan;97962.22;5076442;28;20060;-67
2023/08/16 06:46:22;;;;;;;23.85;7.05;;;;;;;37.03;nan;97961.09;5072372;28;20072;-67
2023/08/16 06:48:52;;;;;;;25.40;7.10;;;;;;;37.08;nan;97956.03;5052967;28;20044;-66
2023/08/16 06:51:22;;;;;;;17.38;5.78;;;;;;;37.10;nan;97952.88;5079197;28;20055;-66
2023/08/16 06:53:51;;;;;;;22.73;6.85;;;;;;;37.02;nan;97951.22;5075871;28;20121;-67
2023/08/16 06:56:20;;;;;;;20.10;5.75;;;;;;;36.75;nan;97951.44;5072975;28;20044;-67
2023/08/16 06:58:51;;;;;;;25.88;6.78;;;;;;;36.55;nan;97961.13;5079457;28;20146;-69
2023/08/16 07:01:20;;;;;;;20.95;5.88;;;;;;;36.72;nan;97952.22;5046815;28;20048;-68
2023/08/16 07:03:49;;;;;;;19.55;5.82;;;;;;;36.86;nan;97946.00;5076714;28;20054;-67
2023/08/16 07:06:19;;;;;;;22.63;7.18;;;;;;;36.98;nan;97948.44;5078490;28;20036;-69
2023/08/16 07:08:48;;;;;;;20.45;5.72;;;;;;;37.10;nan;97947.34;5079421;28;20146;-69
2023/08/16 07:11:17;;;;;;;21.02;6.90;;;;;;;36.75;nan;97942.34;5076851;28;20068;-68
2023/08/16 07:13:47;;;;;;;26.20;7.05;;;;;;;36.70;nan;97938.00;5072774;28;20052;-68
2023/08/16 07:16:18;;;;;;;24.48;6.40;;;;;;;36.36;nan;97937.31;5076650;28;20060;-67
2023/08/16 07:18:48;;;;;;;22.67;6.50;;;;;;;36.31;nan;97945.13;5073922;28;20055;-67
2023/08/16 07:21:20;;;;;;;16.77;6.63;;;;;;;36.64;nan;97939.53;5072707;28;20513;-65
2023/08/16 07:23:49;;;;;;;16.10;5.70;;;;;;;36.78;nan;97939.63;5092008;28;20072;-66
2023/08/16 07:26:19;;;;;;;22.25;6.63;;;;;;;36.85;nan;97936.94;5078224;28;20048;-67
2023/08/16 07:28:49;;;;;;;20.83;6.65;;;;;;;36.89;nan;97928.66;5074527;28;20051;-67
2023/08/16 07:31:18;;;;;;;23.13;6.68;;;;;;;36.91;nan;97926.31;5073546;28;20405;-68
2023/08/16 07:33:47;;;;;;;19.48;7.63;;;;;;;36.86;nan;97921.94;5076504;28;20047;-65
2023/08/16 07:36:17;;;;;;;22.02;6.68;;;;;;;36.87;nan;97922.72;5075841;28;20167;-66
2023/08/16 07:38:47;;;;;;;21.85;6.35;;;;;;;36.85;nan;97916.81;5075770;28;20131;-65
2023/08/16 07:41:17;;;;;;;24.42;6.32;;;;;;;37.03;nan;97919.66;5072728;28;20067;-66
2023/08/16 07:43:46;;;;;;;21.00;7.13;;;;;;;36.98;nan;97912.53;5074427;28;20048;-67
2023/08/16 07:46:16;;;;;;;27.25;7.43;;;;;;;37.02;nan;97913.34;5078824;28;20047;-68
2023/08/16 07:48:45;;;;;;;22.02;6.40;;;;;;;36.98;nan;97918.06;5077246;28;20046;-67
2023/08/16 07:51:14;;;;;;;24.10;6.60;;;;;;;36.90;nan;97919.22;5073219;28;20135;-65
2023/08/16 07:53:43;;;;;;;27.92;8.35;;;;;;;36.88;nan;97916.81;5080034;28;20051;-67
2023/08/16 07:56:12;;;;;;;25.73;6.40;;;;;;;36.58;nan;97918.94;5076548;28;20071;-65
2023/08/16 07:58:42;;;;;;;17.05;6.72;;;;;;;36.58;nan;97907.13;5071577;28;20056;-67
2023/08/16 08:01:12;;;;;;;19.05;6.18;;;;;;;36.72;nan;97912.78;5077701;28;20055;-68
2023/08/16 08:03:41;;;;;;;17.10;6.10;;;;;;;36.67;nan;97900.13;5081268;28;20050;-65
2023/08/16 08:06:10;;;;;;;22.65;7.18;;;;;;;36.68;nan;97898.97;5074621;28;20048;-66
2023/08/16 08:08:39;;;;;;;20.38;6.10;;;;;;;36.60;nan;97891.00;5080791;28;20054;-66
2023/08/16 08:11:09;;;;;;;16.25;7.15;;;;;;;36.52;nan;97892.09;5080506;28;20059;-64
2023/08/16 08:13:38;;;;;;;19.23;5.93;;;;;;;36.63;nan;97898.50;5074647;28;20130;-63
2023/08/16 08:16:08;;;;;;;16.60;6.28;;;;;;;36.74;nan;97891.88;5072617;28;20662;-66
2023/08/16 08:18:38;;;;;;;27.15;7.38;;;;;;;36.46;nan;97875.13;5072401;28;20054;-66
2023/08/16 08:21:07;;;;;;;22.38;6.95;;;;;;;36.46;nan;97880.63;5073169;28;20048;-66
2023/08/16 08:23:37;;;;;;;22.38;6.88;;;;;;;36.42;nan;97875.09;5087330;28;20754;-66
2023/08/16 08:26:10;;;;;;;20.70;6.97;;;;;;;36.50;nan;97872.38;5077605;28;20059;-67
2023/08/16 08:28:40;;;;;;;19.80;6.85;;;;;;;36.65;nan;97861.06;5077219;28;20076;-65
2023/08/16 08:31:09;;;;;;;20.60;7.18;;;;;;;36.64;nan;97855.94;5070898;28;20048;-64
2023/08/16 08:33:39;;;;;;;18.08;6.60;;;;;;;36.63;nan;97844.13;5074150;28;20428;-66
2023/08/16 08:36:08;;;;;;;12.70;6.45;;;;;;;36.69;nan;97844.56;5072818;28;20075;-67
2023/08/16 08:38:38;;;;;;;24.10;6.40;;;;;;;36.64;nan;97851.22;5075122;28;20523;-68
2023/08/16 08:41:08;;;;;;;22.35;6.95;;;;;;;36.47;nan;97847.13;5075251;28;20782;-68
2023/08/16 08:43:38;;;;;;;24.73;7.25;;;;;;;36.50;nan;97850.31;5076984;28;20074;-67
2023/08/16 08:46:28;;;;;;;14.50;6.03;;;;;;;36.54;nan;97842.84;5076436;28;20051;-66
2023/08/16 08:49:01;;;;;;;25.63;7.78;;;;;;;36.47;nan;97849.88;5075677;28;20059;-66
2023/08/16 08:51:31;;;;;;;27.48;8.18;;;;;;;36.47;nan;97841.59;5074930;28;20835;-66
2023/08/16 08:54:01;;;;;;;24.45;6.90;;;;;;;36.44;nan;97842.38;5089103;28;20074;-67
2023/08/16 08:56:33;;;;;;;19.50;7.05;;;;;;;36.35;nan;97841.91;5055718;28;20132;-67
2023/08/16 08:59:04;;;;;;;24.08;8.95;;;;;;;36.31;nan;97832.03;5074699;28;20075;-67
2023/08/16 09:01:36;;;;;;;;;;;;;;;36.43;nan;97821.47;5077716;28;20107;-67
2023/08/16 09:04:11;;;;;;;17.17;6.60;;;;;;;36.55;nan;97827.88;5070149;28;19927;-66
2023/08/16 09:06:42;;;;;;;24.75;6.93;;;;;;;36.53;nan;97835.72;5075763;28;20047;-66
2023/08/16 09:09:12;;;;;;;27.52;7.07;;;;;;;36.34;nan;97834.81;5077660;28;20840;-66
2023/08/16 09:11:42;;;;;;;19.42;5.72;;;;;;;36.53;nan;97824.69;5076303;28;20427;-67
2023/08/16 09:14:14;;;;;;;22.40;6.13;;;;;;;36.57;nan;97820.00;5073430;28;20468;-66
2023/08/16 09:16:44;;;;;;;18.90;5.63;;;;;;;36.63;nan;97818.50;5076072;28;20044;-66
2023/08/16 09:19:14;;;;;;;25.48;6.25;;;;;;;36.74;nan;97819.31;5076246;28;20052;-66
2023/08/16 09:21:44;;;;;;;24.60;7.68;;;;;;;36.59;nan;97812.94;5076602;28;20058;-66
2023/08/16 09:24:13;;;;;;;19.02;6.07;;;;;;;36.55;nan;97806.59;5069586;28;20047;-66
2023/08/16 09:26:46;;;;;;;33.72;6.15;;;;;;;36.32;nan;97798.56;5100297;28;20132;-64
2023/08/16 09:29:19;;;;;;;21.77;5.40;;;;;;;36.01;nan;97794.38;5074199;28;20224;-69
2023/08/16 09:31:49;;;;;;;21.80;5.75;;;;;;;35.96;nan;97796.69;5074846;28;20055;-66
2023/08/16 09:34:23;;;;;;;17.38;5.40;;;;;;;35.89;nan;97789.13;4720150;28;10000573;-68
2023/08/16 09:36:56;;;;;;;17.73;5.65;;;;;;;35.86;nan;97786.34;5069864;28;20033;-67
2023/08/16 09:39:28;;;;;;;22.05;5.85;;;;;;;35.81;nan;97783.94;5073706;28;20049;-68
2023/08/16 09:41:58;;;;;;;23.25;5.90;;;;;;;35.65;nan;97792.47;5075799;28;20411;-66
2023/08/16 09:44:30;;;;;;;21.98;6.38;;;;;;;35.57;nan;97797.09;5072025;28;20058;-67
2023/08/16 09:46:59;;;;;;;17.95;5.38;;;;;;;35.58;nan;97790.41;5079190;28;20075;-68
2023/08/16 09:49:33;;;;;;;27.60;6.90;;;;;;;35.49;nan;97783.63;5074676;28;20279;-68
2023/08/16 09:52:08;;;;;;;20.87;5.40;;;;;;;35.37;nan;97778.38;5076542;28;20777;-68
2023/08/16 09:54:41;;;;;;;21.92;5.35;;;;;;;35.39;nan;97774.09;5071177;28;20052;-68
2023/08/16 09:57:11;;;;;;;17.95;5.55;;;;;;;35.36;nan;97780.34;5077784;28;20777;-68
2023/08/16 09:59:43;;;;;;;;;;;;;;;35.40;nan;97783.94;5079681;28;20058;-68
2023/08/16 10:02:14;;;;;;;21.65;5.60;;;;;;;35.37;nan;97781.94;5076994;28;19928;-69
2023/08/16 10:04:44;;;;;;;14.02;4.70;;;;;;;35.26;nan;97785.75;5065769;28;20399;-70
2023/08/16 10:07:17;;;;;;;13.45;5.32;;;;;;;35.23;nan;97787.28;5067792;28;20140;-68
2023/08/16 10:09:48;;;;;;;25.15;5.85;;;;;;;35.30;nan;97794.84;5073472;28;20040;-73
2023/08/16 10:12:18;;;;;;;26.38;6.15;;;;;;;35.34;nan;97804.72;5073594;28;20032;-72
2023/08/16 10:14:48;;;;;;;20.02;5.00;;;;;;;35.34;nan;97787.41;5079515;28;20577;-70
2023/08/16 10:17:21;;;;;;;16.45;5.57;;;;;;;35.33;nan;97797.63;5077038;28;20475;-66
2023/08/16 10:19:57;;;;;;;18.70;5.68;;;;;;;35.43;nan;97779.63;5064328;28;20676;-65
2023/08/16 10:22:35;;;;;;;18.02;6.35;;;;;;;35.46;nan;97782.41;5047470;28;20047;-67
2023/08/16 10:25:17;;;;;;;18.05;4.78;;;;;;;35.40;nan;97777.66;5076357;28;20047;-68
2023/08/16 10:27:47;;;;;;;20.95;5.80;;;;;;;35.44;nan;97778.47;5102168;27;20048;-67
2023/08/16 10:30:21;;;;;;;13.48;4.60;;;;;;;35.42;nan;97773.31;5060291;28;20151;-68
2023/08/16 10:33:02;;;;;;;17.52;5.38;;;;;;;35.34;nan;97776.38;5072876;28;20202;-67
2023/08/16 10:35:35;;;;;;;20.83;8.88;;;;;;;34.66;nan;97753.56;5081198;28;20717;-67
2023/08/16 10:38:04;;;;;;;18.98;9.38;;;;;;;34.20;nan;97739.16;5070011;28;20079;-68
2023/08/16 10:40:34;;;;;;;23.13;11.07;;;;;;;34.24;nan;97737.25;5072872;28;20474;-67
2023/08/16 10:43:09;;;;;;;23.15;11.65;;;;;;;34.11;nan;97726.81;5042722;28;20075;-68
2023/08/16 10:45:45;;;;;;;22.20;10.40;;;;;;;34.10;nan;97727.97;5074478;28;20048;-66
2023/08/16 10:48:18;;;;;;;19.38;10.50;;;;;;;34.20;nan;97713.63;5083110;28;20043;-70
2023/08/16 10:50:57;;;;;;;22.45;11.55;;;;;;;34.08;nan;97716.56;5082680;28;20055;-70
2023/08/16 10:53:28;;;;;;;23.88;10.13;;;;;;;34.00;nan;97706.59;5082266;28;20056;-69
2023/08/16 10:55:57;;;;;;;20.75;9.50;;;;;;;33.97;nan;97708.16;5083337;28;20181;-68
2023/08/16 10:58:28;;;;;;;22.00;10.02;;;;;;;33.98;nan;97711.69;5058515;28;20216;-65
2023/08/16 11:00:59;;;;;;;31.25;11.27;;;;;;;33.97;nan;97710.09;5070633;28;20708;-66
2023/08/16 11:03:33;;;;;;;20.02;10.48;;;;;;;34.01;nan;97699.97;5068965;28;20043;-66
2023/08/16 11:06:11;;;;;;;31.35;11.00;;;;;;;33.89;nan;97705.69;5072040;28;20143;-66
2023/08/16 11:08:42;;;;;;;19.15;9.90;;;;;;;33.92;nan;97696.69;5085569;28;20040;-66
2023/08/16 11:11:12;;;;;;;20.75;10.15;;;;;;;33.84;nan;97696.59;5076065;28;20048;-66
2023/08/16 11:13:43;;;;;;;19.33;9.30;;;;;;;33.84;nan;97684.81;5071398;28;20054;-66
2023/08/16 11:16:13;;;;;;;19.02;9.52;;;;;;;33.80;nan;97687.50;5076074;28;20151;-66
2023/08/16 11:18:43;;;;;;;24.27;9.40;;;;;;;33.76;nan;97683.91;5084621;28;20075;-67
2023/08/16 11:21:13;;;;;;;21.38;9.15;;;;;;;33.69;nan;97675.53;5083392;28;20048;-67
2023/08/16 11:23:43;;;;;;;24.25;9.90;;;;;;;33.71;nan;97675.97;5081555;28;20094;-67
2023/08/16 11:26:13;;;;;;;22.58;10.07;;;;;;;33.75;nan;97667.78;5082846;28;20515;-67
2023/08/16 11:28:43;;;;;;;17.65;8.98;;;;;;;33.81;nan;97664.34;5086731;28;20754;-66
2023/08/16 11:31:13;;;;;;;27.20;9.40;;;;;;;33.77;nan;97668.19;5060391;28;20652;-66
2023/08/16 11:33:43;;;;;;;14.70;8.38;;;;;;;33.77;nan;97659.94;5072882;28;20052;-66
2023/08/16 11:36:17;;;;;;;25.17;9.43;;;;;;;33.77;nan;97662.69;5082262;28;21288;-67
2023/08/16 11:38:49;;;;;;;16.77;8.43;;;;;;;33.78;nan;97647.81;5071794;28;20076;-67
2023/08/16 11:41:21;;;;;;;18.42;8.27;;;;;;;33.79;nan;97646.66;5077013;28;20051;-66
2023/08/16 11:44:00;;;;;;;24.55;8.77;;;;;;;33.73;nan;97657.16;5084228;28;20065;-67
2023/08/16 11:46:40;;;;;;;20.13;8.07;;;;;;;33.69;nan;97642.56;5079391;28;20052;-66
2023/08/16 11:49:12;;;;;;;17.77;6.32;;;;;;;33.70;nan;97644.16;5083276;28;20047;-67
2023/08/16 11:51:45;;;;;;;23.10;6.80;;;;;;;33.66;nan;97648.81;5075737;28;20071;-67
2023/08/16 11:54:23;;;;;;;26.45;7.35;;;;;;;33.81;nan;97645.09;5070098;28;20059;-67